Terminal Aerodrome Forecast
Issued by NWS

Home | Current Version | Previous Version | Text Only | Print | Product List | Glossary On
Versions: 1 2 3 4 5 6 7 8 9 10 11 12 13 14 15 16 17 18 19 20 21 22 23 24
734
FTUS46 KEKA 132339
TAFCEC
TAF
KCEC 132339Z 1400/1424 25004KT P6SM SCT008 OVC150
     FM140200 13003KT P6SM OVC100
     FM140600 15008KT P6SM VCSH OVC050
     FM141600 16009KT 4SM -SHRA BR SCT007 OVC025
     FM142000 19006KT 5SM BR OVC015=

USA.gov is the U.S. government's official web portal to all federal, state and local government web resources and services.